Capt. Ted — WDD6210 — position and weather

sailwx.info

Track history (hours):
 
Tides and Currents Weather Stations Pressure Air Temp Water Temp Dewpoint Dewpoint Depression Visibility Wind Speed Wind Dir Waves Ship Positions

Capt. Ted

Owner: Salisbury Towing Corporation, Havre de Grace, MD. More information available from US FCC via Universal Licensing System and Coast Guard Vessel Documentation Center.

Last reported at 2016-Jun-27 08:32 UTC. Time now 2016-Jun-27 09:36 UTC.
Position N 39°34' W 076°06'.

Length 32 m; draft 2.8 m.

Type: Tug. MMSI: 367169710.

Date/timePositionNaut miles runAvg speedWind from/ knotsBaromVisibWave heightAir tempDewpointWater temp
2016-Jun-27 08:32N 39°34' W 076°06'2 2.0
2016-Jun-27 07:34N 39°33' W 076°05'6 6.4
2016-Jun-27 06:34N 39°27' W 076°02'8 8.2
2016-Jun-27 05:33N 39°21' W 076°10'9 8.8
2016-Jun-27 04:33N 39°13' W 076°15'9 8.5
2016-Jun-27 03:32N 39°06' W 076°21'8 8.6
2016-Jun-27 02:33N 38°58' W 076°24'70 5.3
2016-Jun-26 13:16N 37°53' W 075°49'6 8.2
2016-Jun-26 12:32N 37°57' W 075°43'5 4.9
2016-Jun-26 11:30N 37°60' W 075°37'2 0.5
2016-Jun-26 08:33N 38°01' W 075°38'6 3.0
2016-Jun-26 06:33N 37°57' W 075°44'0 0.0
2016-Jun-26 05:33N 37°57' W 075°44'0 0.1
2016-Jun-26 04:07N 37°57' W 075°44'0 0.0
2016-Jun-26 03:33N 37°57' W 075°44'88 3.5
2016-Jun-25 02:33N 39°23' W 076°05'5 4.6
2016-Jun-25 01:33N 39°27' W 076°02'5 4.9
2016-Jun-25 00:33N 39°32' W 076°05'3 2.8
2016-Jun-24 23:33N 39°34' W 076°06'6 5.8
2016-Jun-24 22:33N 39°29' W 076°05'6 5.6
2016-Jun-24 21:33N 39°23' W 076°05'9 6.6
2016-Jun-24 20:15N 39°17' W 076°13'6 7.1
2016-Jun-24 19:24N 39°12' W 076°16'  
2016-Jun-22 09:20N 37°58' W 076°18'6 8.2
2016-Jun-22 08:33N 38°02' W 076°24'9 7.9
2016-Jun-22 07:26N 38°07' W 076°33'43 1.0
2016-Jun-20 12:27N 38°36' W 077°12'50 1.9
2016-Jun-19 09:17N 38°02' W 076°25'5 6.9
2016-Jun-19 08:33N 37°59' W 076°20'7 6.9
2016-Jun-19 07:33N 37°55' W 076°13'7 7.0
2016-Jun-19 06:33N 37°50' W 076°07'13 5.9
2016-Jun-19 04:21N 37°47' W 075°51'11 0.8
2016-Jun-18 13:33N 37°57' W 075°44'0 0.1
2016-Jun-18 12:33N 37°57' W 075°44'0 0.1
2016-Jun-18 11:32N 37°57' W 075°44'0 0.3
2016-Jun-18 10:33N 37°57' W 075°44'5 5.3
2016-Jun-18 09:33N 37°53' W 075°49'6 5.8
2016-Jun-18 08:33N 37°47' W 075°51'5 5.3
2016-Jun-18 07:33N 37°45' W 075°57'11 7.3
2016-Jun-18 06:05N 37°56' W 075°57'4 6.8
2016-Jun-18 05:26N 37°60' W 075°55'14 5.9
2016-Jun-18 03:06N 38°13' W 075°60'5 6.0
2016-Jun-18 02:21N 38°13' W 076°05'59 6.5
2016-Jun-17 17:12N 39°11' W 076°26'4 6.9
2016-Jun-17 16:33N 39°13' W 076°31'4 4.3
2016-Jun-17 15:33N 39°15' W 076°35'2 2.2
2016-Jun-17 14:33N 39°14' W 076°34'0 0.0
2016-Jun-17 13:33N 39°14' W 076°34'0 0.1
2016-Jun-17 12:32N 39°13' W 076°34'2 2.1
2016-Jun-17 11:33N 39°15' W 076°36'2 1.6
2016-Jun-17 10:33N 39°15' W 076°34'6 6.0
2016-Jun-17 09:33N 39°11' W 076°28'5 4.6
2016-Jun-17 08:33N 39°13' W 076°23'  
Track history (hours):
 
Tides and Currents Weather Stations Pressure Air Temp Water Temp Dewpoint Dewpoint Depression Visibility Wind Speed Wind Dir Waves Ship Positions

Capt. Ted

Owner: Salisbury Towing Corporation, Havre de Grace, MD. More information available from US FCC via Universal Licensing System and Coast Guard Vessel Documentation Center.

Last reported at 2016-Jun-27 08:32 UTC. Time now 2016-Jun-27 09:36 UTC.
Position N 39°34' W 076°06'.

Length 32 m; draft 2.8 m.

Type: Tug. MMSI: 367169710.

Date/timePositionNaut miles runAvg speedWind from/ knotsBaromVisibWave heightAir tempDewpointWater temp
2016-Jun-27 08:32N 39°34' W 076°06'2 2.0
2016-Jun-27 07:34N 39°33' W 076°05'6 6.4
2016-Jun-27 06:34N 39°27' W 076°02'8 8.2
2016-Jun-27 05:33N 39°21' W 076°10'9 8.8
2016-Jun-27 04:33N 39°13' W 076°15'9 8.5
2016-Jun-27 03:32N 39°06' W 076°21'8 8.6
2016-Jun-27 02:33N 38°58' W 076°24'70 5.3
2016-Jun-26 13:16N 37°53' W 075°49'6 8.2
2016-Jun-26 12:32N 37°57' W 075°43'5 4.9
2016-Jun-26 11:30N 37°60' W 075°37'2 0.5
2016-Jun-26 08:33N 38°01' W 075°38'6 3.0
2016-Jun-26 06:33N 37°57' W 075°44'0 0.0
2016-Jun-26 05:33N 37°57' W 075°44'0 0.1
2016-Jun-26 04:07N 37°57' W 075°44'0 0.0
2016-Jun-26 03:33N 37°57' W 075°44'88 3.5
2016-Jun-25 02:33N 39°23' W 076°05'5 4.6
2016-Jun-25 01:33N 39°27' W 076°02'5 4.9
2016-Jun-25 00:33N 39°32' W 076°05'3 2.8
2016-Jun-24 23:33N 39°34' W 076°06'6 5.8
2016-Jun-24 22:33N 39°29' W 076°05'6 5.6
2016-Jun-24 21:33N 39°23' W 076°05'9 6.6
2016-Jun-24 20:15N 39°17' W 076°13'6 7.1
2016-Jun-24 19:24N 39°12' W 076°16'  
2016-Jun-22 09:20N 37°58' W 076°18'6 8.2
2016-Jun-22 08:33N 38°02' W 076°24'9 7.9
2016-Jun-22 07:26N 38°07' W 076°33'43 1.0
2016-Jun-20 12:27N 38°36' W 077°12'50 1.9
2016-Jun-19 09:17N 38°02' W 076°25'5 6.9
2016-Jun-19 08:33N 37°59' W 076°20'7 6.9
2016-Jun-19 07:33N 37°55' W 076°13'7 7.0
2016-Jun-19 06:33N 37°50' W 076°07'13 5.9
2016-Jun-19 04:21N 37°47' W 075°51'11 0.8
2016-Jun-18 13:33N 37°57' W 075°44'0 0.1
2016-Jun-18 12:33N 37°57' W 075°44'0 0.1
2016-Jun-18 11:32N 37°57' W 075°44'0 0.3
2016-Jun-18 10:33N 37°57' W 075°44'5 5.3
2016-Jun-18 09:33N 37°53' W 075°49'6 5.8
2016-Jun-18 08:33N 37°47' W 075°51'5 5.3
2016-Jun-18 07:33N 37°45' W 075°57'11 7.3
2016-Jun-18 06:05N 37°56' W 075°57'4 6.8
2016-Jun-18 05:26N 37°60' W 075°55'14 5.9
2016-Jun-18 03:06N 38°13' W 075°60'5 6.0
2016-Jun-18 02:21N 38°13' W 076°05'59 6.5
2016-Jun-17 17:12N 39°11' W 076°26'4 6.9
2016-Jun-17 16:33N 39°13' W 076°31'4 4.3
2016-Jun-17 15:33N 39°15' W 076°35'2 2.2
2016-Jun-17 14:33N 39°14' W 076°34'0 0.0
2016-Jun-17 13:33N 39°14' W 076°34'0 0.1
2016-Jun-17 12:32N 39°13' W 076°34'2 2.1
2016-Jun-17 11:33N 39°15' W 076°36'2 1.6
2016-Jun-17 10:33N 39°15' W 076°34'6 6.0
2016-Jun-17 09:33N 39°11' W 076°28'5 4.6
2016-Jun-17 08:33N 39°13' W 076°23'  

Dump ship's entire track history